Time;durP1;ratioP1;P1;durP2;ratioP2;P2;SDS_P1;SDS_P2;PMS_P1;PMS_P2;Temp;Humidity;BMP_temperature;BMP_pressure;BME280_temperature;BME280_humidity;BME280_pressure;Samples;Min_cycle;Max_cycle;Signal;HPM_P1;HPM_P2
2022/10/19 00:01:46;;;;;;;26.60;11.13;;;;;;;18.27;100.00;100998.28;5071095;28;20028;-58
2022/10/19 00:04:11;;;;;;;29.30;13.10;;;;;;;18.27;100.00;100992.91;5079179;28;20043;-58
2022/10/19 00:06:36;;;;;;;27.58;10.88;;;;;;;18.24;100.00;100998.44;5070772;28;20462;-58
2022/10/19 00:09:11;;;;;;;25.08;10.48;;;;;;;18.23;100.00;101002.09;5070764;28;20056;-57
2022/10/19 00:11:40;;;;;;;23.00;10.18;;;;;;;18.26;100.00;101001.94;5070655;28;20503;-58
2022/10/19 00:14:07;;;;;;;66.00;13.15;;;;;;;18.27;100.00;101002.78;5070993;28;20016;-58
2022/10/19 00:16:35;;;;;;;27.20;11.70;;;;;;;18.23;100.00;100996.72;5071004;28;20020;-58
2022/10/19 00:19:03;;;;;;;27.60;10.45;;;;;;;18.24;100.00;100992.16;5070508;28;20031;-58
2022/10/19 00:21:29;;;;;;;25.00;10.02;;;;;;;18.24;100.00;100987.66;5070821;28;20024;-58
2022/10/19 00:23:54;;;;;;;26.08;10.32;;;;;;;18.25;100.00;100989.41;5070669;28;20400;-58
2022/10/19 00:26:20;;;;;;;26.13;10.68;;;;;;;18.28;100.00;100983.88;5073282;28;20462;-58
2022/10/19 00:28:45;;;;;;;24.75;10.60;;;;;;;18.26;100.00;100977.69;5070776;28;20033;-58
2022/10/19 00:31:14;;;;;;;27.70;11.02;;;;;;;18.20;100.00;100967.19;5070643;28;20031;-57
2022/10/19 00:33:41;;;;;;;27.67;11.43;;;;;;;18.23;100.00;100982.34;5071238;28;20436;-58
2022/10/19 00:36:18;;;;;;;31.40;11.20;;;;;;;18.26;100.00;100982.19;5074925;28;20421;-58
2022/10/19 00:38:44;;;;;;;28.42;10.52;;;;;;;18.24;100.00;100984.97;5074497;28;20028;-58
2022/10/19 00:41:09;;;;;;;26.05;10.23;;;;;;;18.25;100.00;100988.56;5074797;28;20502;-58
2022/10/19 00:44:14;;;;;;;28.15;10.07;;;;;;;18.24;100.00;100990.38;5074533;28;20249;-58
2022/10/19 00:46:44;;;;;;;25.63;10.20;;;;;;;18.22;100.00;100994.94;4992687;28;20067;-57
2022/10/19 00:49:21;;;;;;;23.00;9.48;;;;;;;18.15;100.00;100993.47;4992869;28;20108;-58
2022/10/19 00:51:50;;;;;;;22.80;9.85;;;;;;;18.13;100.00;101000.78;5039390;28;20573;-58
2022/10/19 00:54:17;;;;;;;26.98;9.07;;;;;;;18.11;100.00;101002.66;5074067;28;20020;-58
2022/10/19 00:56:44;;;;;;;21.20;9.00;;;;;;;18.09;100.00;100999.16;5074299;28;20047;-58
2022/10/19 00:59:13;;;;;;;23.67;9.40;;;;;;;18.11;100.00;101002.66;5074109;28;20028;-58
2022/10/19 01:01:41;;;;;;;20.65;9.18;;;;;;;17.89;100.00;100975.00;5173729;23;20045;-78
2022/10/19 01:04:08;;;;;;;22.77;8.80;;;;;;;18.00;100.00;100983.47;5069998;28;20080;-79
2022/10/19 01:06:34;;;;;;;17.67;8.48;;;;;;;17.89;100.00;100969.63;5050793;28;20088;-78
2022/10/19 01:09:00;;;;;;;20.75;10.07;;;;;;;17.98;100.00;100977.28;5049605;28;20070;-77
2022/10/19 01:11:37;;;;;;;26.95;10.38;;;;;;;18.08;100.00;100980.41;5068512;28;20449;-78
2022/10/19 01:14:20;;;;;;;20.95;8.40;;;;;;;18.04;100.00;100982.34;5065375;28;20033;-78
2022/10/19 01:17:09;;;;;;;21.45;8.07;;;;;;;17.97;100.00;100983.59;5069086;28;20033;-79
2022/10/19 01:19:44;;;;;;;25.25;9.13;;;;;;;18.04;100.00;100984.16;5045947;28;20040;-78
2022/10/19 01:25:47;;;;;;;21.65;7.65;;;;;;;18.02;100.00;100980.69;4992141;28;20205;-61
2022/10/19 01:28:46;;;;;;;20.77;8.07;;;;;;;17.96;100.00;100986.34;4898993;29;20063;-61
2022/10/19 01:31:19;;;;;;;20.80;8.82;;;;;;;17.93;100.00;100981.13;4927413;29;20039;-61
2022/10/19 01:33:59;;;;;;;17.13;8.07;;;;;;;17.91;100.00;100974.94;4991370;28;20552;-61
2022/10/19 01:36:50;;;;;;;19.80;7.10;;;;;;;17.71;100.00;100937.34;4993777;28;20449;-61
2022/10/19 01:39:31;;;;;;;21.02;8.07;;;;;;;17.86;100.00;100969.78;4993540;28;20226;-61
2022/10/19 01:42:11;;;;;;;19.38;7.32;;;;;;;17.84;100.00;100962.72;4992909;28;20707;-60
2022/10/19 01:45:00;;;;;;;20.15;8.20;;;;;;;17.84;100.00;100960.88;5012954;28;20030;-60
2022/10/19 01:47:37;;;;;;;19.92;7.53;;;;;;;17.82;100.00;100951.16;5012914;28;20025;-60
2022/10/19 01:50:12;;;;;;;18.08;7.63;;;;;;;17.85;100.00;100957.28;5013352;28;20097;-60
2022/10/19 01:52:40;;;;;;;21.65;7.40;;;;;;;17.85;100.00;100951.91;5012852;28;20040;-60
2022/10/19 01:55:08;;;;;;;17.90;7.45;;;;;;;17.86;100.00;100958.13;5013139;28;20033;-60
2022/10/19 01:57:40;;;;;;;21.65;8.13;;;;;;;17.86;100.00;100952.75;5012979;28;20021;-61
2022/10/19 02:00:09;;;;;;;19.35;7.95;;;;;;;17.84;100.00;100954.66;5012362;28;20052;-62
2022/10/19 02:02:37;;;;;;;18.67;8.43;;;;;;;17.81;100.00;100952.97;5012788;28;20365;-60
2022/10/19 02:05:05;;;;;;;23.50;8.52;;;;;;;17.79;100.00;100951.31;5011246;28;20472;-60
2022/10/19 02:07:31;;;;;;;20.52;9.27;;;;;;;17.79;100.00;100949.47;5012728;28;20030;-60
2022/10/19 02:09:57;;;;;;;24.95;9.57;;;;;;;17.79;100.00;100946.78;5012910;28;20469;-60
2022/10/19 02:12:25;;;;;;;21.40;9.40;;;;;;;17.79;100.00;100952.16;5012417;28;20036;-60
2022/10/19 02:14:54;;;;;;;19.70;8.63;;;;;;;17.77;100.00;100951.38;5013051;28;20034;-61
2022/10/19 02:17:24;;;;;;;20.20;8.48;;;;;;;17.74;100.00;100932.66;5011606;28;20026;-60
2022/10/19 02:19:50;;;;;;;26.55;9.52;;;;;;;17.76;100.00;100946.94;5012489;28;20405;-60
2022/10/19 02:22:15;;;;;;;25.08;10.68;;;;;;;17.74;100.00;100943.44;4995252;28;20065;-60
2022/10/19 02:24:41;;;;;;;21.98;8.70;;;;;;;17.73;100.00;100941.69;5010832;28;20145;-60
2022/10/19 02:27:07;;;;;;;24.00;10.00;;;;;;;17.72;100.00;100953.41;5010795;28;20499;-60
2022/10/19 02:29:34;;;;;;;23.63;9.50;;;;;;;17.69;100.00;100939.22;5010830;28;20073;-60
2022/10/19 02:32:01;;;;;;;23.02;10.60;;;;;;;17.75;100.00;100934.44;5010791;28;20070;-60
2022/10/19 02:34:27;;;;;;;26.25;10.10;;;;;;;17.81;100.00;100944.91;5010937;28;20025;-60
2022/10/19 02:36:53;;;;;;;23.17;10.27;;;;;;;17.78;100.00;100934.28;5012426;28;20520;-60
2022/10/19 02:39:22;;;;;;;22.00;9.70;;;;;;;17.77;100.00;100937.03;5012404;28;20440;-60
2022/10/19 02:42:49;;;;;;;23.13;10.40;;;;;;;17.74;100.00;100938.03;5012215;28;20029;-61
2022/10/19 02:45:27;;;;;;;22.05;10.18;;;;;;;17.79;100.00;100930.63;4978896;28;20038;-60
2022/10/19 02:47:58;;;;;;;22.83;10.90;;;;;;;17.71;100.00;100916.66;5012150;28;20026;-61
2022/10/19 02:50:24;;;;;;;21.02;9.55;;;;;;;17.78;100.00;100912.75;5011818;28;20488;-61
2022/10/19 02:52:50;;;;;;;22.92;9.25;;;;;;;17.79;100.00;100922.56;5011338;28;20445;-61
2022/10/19 02:55:15;;;;;;;22.73;10.32;;;;;;;17.72;100.00;100898.72;5012039;28;20033;-62
2022/10/19 02:57:41;;;;;;;22.58;9.82;;;;;;;17.73;100.00;100897.75;5011779;28;20296;-61
2022/10/19 03:00:08;;;;;;;25.90;10.30;;;;;;;17.71;100.00;100895.13;5011901;28;20041;-61
2022/10/19 03:02:33;;;;;;;23.75;10.73;;;;;;;17.76;100.00;100903.03;4995833;28;20041;-61
2022/10/19 03:04:59;;;;;;;25.17;11.43;;;;;;;17.76;100.00;100893.09;5011029;28;20029;-61
2022/10/19 03:07:25;;;;;;;24.98;10.55;;;;;;;17.78;100.00;100895.72;5011908;28;20018;-61
2022/10/19 03:09:50;;;;;;;27.67;11.35;;;;;;;17.78;100.00;100896.59;5011351;28;20026;-60
2022/10/19 03:12:16;;;;;;;22.08;10.45;;;;;;;17.78;100.00;100891.22;4995924;28;20065;-61
2022/10/19 03:14:42;;;;;;;23.95;10.38;;;;;;;17.79;100.00;100894.78;4992582;28;20038;-61
2022/10/19 03:17:08;;;;;;;20.50;9.10;;;;;;;17.76;100.00;100897.63;4991480;28;20056;-60
2022/10/19 03:19:34;;;;;;;23.30;8.90;;;;;;;17.68;100.00;100897.09;4992055;28;20096;-61
2022/10/19 03:22:00;;;;;;;18.92;9.75;;;;;;;17.64;100.00;100896.41;4991820;28;20109;-60
2022/10/19 03:24:25;;;;;;;23.25;9.65;;;;;;;17.61;100.00;100888.44;4991949;28;20117;-60
2022/10/19 03:26:51;;;;;;;22.55;9.68;;;;;;;17.60;100.00;100889.41;4991789;28;20037;-60
2022/10/19 03:29:16;;;;;;;20.63;9.32;;;;;;;17.61;100.00;100882.22;5005676;28;20013;-60
2022/10/19 03:31:41;;;;;;;21.15;8.35;;;;;;;17.57;100.00;100891.38;5030414;28;20033;-60
2022/10/19 03:34:07;;;;;;;19.90;8.38;;;;;;;17.53;100.00;100884.41;5015941;28;20072;-60
2022/10/19 03:36:36;;;;;;;20.48;8.70;;;;;;;17.46;100.00;100899.94;5011253;28;20104;-60
2022/10/19 03:39:05;;;;;;;22.20;9.38;;;;;;;17.44;100.00;100888.34;5011354;28;20366;-60
2022/10/19 03:41:32;;;;;;;26.05;9.88;;;;;;;17.45;100.00;100892.81;5011362;28;20038;-60
2022/10/19 03:43:58;;;;;;;19.50;8.50;;;;;;;17.42;100.00;100876.78;5011533;28;20057;-60
2022/10/19 03:46:24;;;;;;;20.10;8.70;;;;;;;17.40;100.00;100873.28;5009876;28;20064;-60
2022/10/19 03:48:50;;;;;;;26.25;9.95;;;;;;;17.39;100.00;100876.94;5011262;28;20014;-60
2022/10/19 03:51:18;;;;;;;20.48;9.15;;;;;;;17.43;100.00;100883.06;5025715;28;20037;-60
2022/10/19 03:53:45;;;;;;;22.65;9.95;;;;;;;17.45;100.00;100883.81;5029262;28;20056;-60
2022/10/19 03:56:16;;;;;;;23.75;9.10;;;;;;;17.44;100.00;100888.34;5010937;28;20449;-60
2022/10/19 03:58:43;;;;;;;22.65;8.27;;;;;;;17.50;100.00;100887.22;5010964;28;20059;-60
2022/10/19 04:01:14;;;;;;;19.23;9.02;;;;;;;17.49;100.00;100891.75;5011237;28;20030;-60
2022/10/19 04:03:40;;;;;;;19.85;9.13;;;;;;;17.47;100.00;100895.44;5010530;28;20068;-61
2022/10/19 04:06:12;;;;;;;21.85;9.93;;;;;;;17.50;100.00;100889.91;5010024;28;20025;-61
2022/10/19 04:08:37;;;;;;;18.42;9.25;;;;;;;17.38;100.00;100880.56;5009330;28;20075;-60
2022/10/19 04:11:05;;;;;;;23.45;8.82;;;;;;;17.35;100.00;100880.69;5008961;28;20033;-60
2022/10/19 04:13:32;;;;;;;19.15;9.13;;;;;;;17.37;100.00;100884.19;5008820;28;20417;-61
2022/10/19 04:15:58;;;;;;;16.65;9.45;;;;;;;17.39;100.00;100882.31;5008971;28;20096;-61
2022/10/19 04:18:23;;;;;;;19.38;8.82;;;;;;;17.41;100.00;100885.81;5008391;28;20022;-61
2022/10/19 04:20:58;;;;;;;18.77;8.18;;;;;;;17.37;100.00;100889.56;5009005;28;20029;-61
2022/10/19 04:23:25;;;;;;;20.10;8.65;;;;;;;17.37;100.00;100886.88;5008389;28;20049;-60
2022/10/19 04:25:51;;;;;;;17.55;8.70;;;;;;;17.20;100.00;100892.16;5010425;28;20404;-60
2022/10/19 04:28:16;;;;;;;21.27;9.20;;;;;;;17.27;100.00;100882.88;5010674;28;20022;-61
2022/10/19 04:30:41;;;;;;;16.40;8.05;;;;;;;17.27;100.00;100882.88;5010692;28;20038;-60
2022/10/19 04:33:07;;;;;;;16.88;8.40;;;;;;;17.31;100.00;100883.63;5010425;28;20481;-60
2022/10/19 04:35:32;;;;;;;16.67;8.23;;;;;;;17.31;100.00;100883.63;5010735;28;20030;-60
2022/10/19 04:37:58;;;;;;;16.40;8.20;;;;;;;17.27;100.00;100876.63;5010427;28;20025;-60
2022/10/19 04:40:24;;;;;;;17.77;8.27;;;;;;;17.30;100.00;100881.88;5009599;28;20385;-60
2022/10/19 04:42:49;;;;;;;17.20;7.97;;;;;;;17.27;100.00;100876.63;5010147;28;20473;-60
2022/10/19 04:45:15;;;;;;;17.50;9.27;;;;;;;17.25;100.00;100884.75;5010590;28;20030;-61
2022/10/19 04:47:40;;;;;;;18.40;9.15;;;;;;;17.26;100.00;100888.31;5010733;28;20037;-60
2022/10/19 04:50:06;;;;;;;16.80;8.43;;;;;;;17.27;100.00;100887.38;5010966;28;20084;-61
2022/10/19 04:52:34;;;;;;;16.58;8.02;;;;;;;17.24;100.00;100887.53;5010595;28;20026;-60
2022/10/19 04:54:59;;;;;;;19.90;8.32;;;;;;;17.24;100.00;100893.78;5010481;28;20030;-60
2022/10/19 04:57:25;;;;;;;16.83;8.63;;;;;;;17.09;100.00;100860.41;5010628;28;20041;-60
2022/10/19 04:59:50;;;;;;;17.17;8.30;;;;;;;17.27;100.00;100885.56;5009608;28;20108;-61
2022/10/19 05:02:15;;;;;;;14.73;7.07;;;;;;;17.22;100.00;100884.91;5010360;28;20388;-61
2022/10/19 05:04:41;;;;;;;18.48;8.73;;;;;;;17.19;100.00;100889.53;5010095;28;20220;-61
2022/10/19 05:07:06;;;;;;;17.23;8.75;;;;;;;17.20;100.00;100892.16;5019666;28;20033;-61
2022/10/19 05:09:32;;;;;;;17.50;7.63;;;;;;;17.18;100.00;100898.56;5015045;28;20018;-61
2022/10/19 05:11:57;;;;;;;21.45;8.52;;;;;;;17.18;100.00;100893.19;5010242;28;20033;-61
2022/10/19 05:14:23;;;;;;;21.33;9.07;;;;;;;17.14;100.00;100887.06;5010436;28;20168;-61
2022/10/19 05:16:48;;;;;;;19.02;9.10;;;;;;;17.14;100.00;100887.06;5010230;28;20053;-61
2022/10/19 05:19:13;;;;;;;18.88;8.40;;;;;;;17.16;100.00;100890.56;5009393;28;20026;-61
2022/10/19 05:21:39;;;;;;;20.48;8.88;;;;;;;17.18;100.00;100894.06;5012216;28;20030;-61
2022/10/19 05:24:04;;;;;;;21.55;10.40;;;;;;;17.19;100.00;100889.53;5013539;28;20056;-61
2022/10/19 05:26:30;;;;;;;21.85;9.00;;;;;;;17.15;100.00;100871.81;5013102;28;20028;-61
2022/10/19 05:29:00;;;;;;;20.60;9.15;;;;;;;17.24;100.00;100877.66;4996320;28;20030;-61
2022/10/19 05:31:27;;;;;;;23.33;10.25;;;;;;;17.24;100.00;100877.66;5013588;28;20057;-61
2022/10/19 05:33:54;;;;;;;21.52;10.15;;;;;;;17.24;100.00;100872.25;5013059;28;20026;-61
2022/10/19 05:36:25;;;;;;;21.05;9.95;;;;;;;17.23;100.00;100869.66;5012843;28;20113;-61
2022/10/19 05:38:51;;;;;;;22.48;10.02;;;;;;;17.22;100.00;100862.50;5025549;28;20025;-61
2022/10/19 05:41:18;;;;;;;19.27;9.05;;;;;;;17.20;100.00;100862.59;5019129;28;20029;-61
2022/10/19 05:43:44;;;;;;;22.92;9.70;;;;;;;17.17;100.00;100870.78;5013341;28;20064;-61
2022/10/19 05:46:11;;;;;;;19.10;8.88;;;;;;;17.16;100.00;100868.19;5013156;28;20030;-61
2022/10/19 05:48:38;;;;;;;22.30;8.55;;;;;;;17.13;100.00;100879.97;5011880;28;20105;-61
2022/10/19 05:51:04;;;;;;;22.05;10.38;;;;;;;17.11;100.00;100876.47;5011290;28;20030;-61
2022/10/19 05:53:31;;;;;;;20.00;9.55;;;;;;;17.15;100.00;100875.38;5011021;28;20033;-61
2022/10/19 05:55:57;;;;;;;22.00;9.18;;;;;;;17.13;100.00;100872.75;5011288;28;20512;-61
2022/10/19 05:58:22;;;;;;;23.08;9.55;;;;;;;17.12;100.00;100882.72;5013347;28;20026;-61
2022/10/19 06:00:56;;;;;;;20.20;8.52;;;;;;;17.09;100.00;100868.47;5027068;28;20036;-61
2022/10/19 06:03:23;;;;;;;18.73;9.15;;;;;;;17.17;100.00;100884.25;5026937;28;20101;-61
2022/10/19 06:05:49;;;;;;;22.25;9.32;;;;;;;17.20;100.00;100886.78;5010068;28;20104;-61
2022/10/19 06:08:16;;;;;;;20.20;9.05;;;;;;;17.17;100.00;100876.19;5010326;28;20081;-61
2022/10/19 06:10:42;;;;;;;24.75;9.45;;;;;;;17.16;100.00;100882.50;5010942;28;20066;-61
2022/10/19 06:13:07;;;;;;;25.33;10.35;;;;;;;17.13;100.00;100878.13;5012793;28;20408;-61
2022/10/19 06:15:35;;;;;;;18.13;8.82;;;;;;;17.11;100.00;100879.16;5012293;28;20435;-61
2022/10/19 06:18:02;;;;;;;20.63;9.25;;;;;;;17.11;100.00;100881.84;5012261;28;20452;-61
2022/10/19 06:20:28;;;;;;;19.85;8.25;;;;;;;17.09;100.00;100879.22;5011514;28;20092;-61
2022/10/19 06:22:54;;;;;;;23.75;9.18;;;;;;;17.09;100.00;100883.72;5012594;28;20037;-61
2022/10/19 06:25:20;;;;;;;22.67;8.75;;;;;;;17.01;100.00;100876.00;5005688;28;20022;-61
2022/10/19 06:27:46;;;;;;;18.85;8.40;;;;;;;17.01;100.00;100880.50;5000255;28;20029;-61
2022/10/19 06:30:11;;;;;;;18.30;9.30;;;;;;;16.98;100.00;100889.56;4992143;28;20405;-61
2022/10/19 06:32:37;;;;;;;18.67;8.68;;;;;;;17.01;100.00;100881.38;4992245;28;20038;-61
2022/10/19 06:35:02;;;;;;;21.38;9.30;;;;;;;17.00;100.00;100886.84;4992187;28;20045;-61
2022/10/19 06:37:28;;;;;;;18.23;8.75;;;;;;;17.05;100.00;100891.03;5003726;28;20141;-61
2022/10/19 06:39:53;;;;;;;20.05;8.32;;;;;;;17.05;100.00;100887.47;5011992;28;20038;-61
2022/10/19 06:42:18;;;;;;;18.90;8.85;;;;;;;17.00;100.00;100892.22;5011217;28;20030;-61
2022/10/19 06:44:44;;;;;;;19.55;9.07;;;;;;;16.98;100.00;100896.78;5011580;28;20380;-61
2022/10/19 06:47:10;;;;;;;21.95;8.40;;;;;;;16.97;100.00;100895.00;5011977;28;20064;-61
2022/10/19 06:49:36;;;;;;;19.63;8.70;;;;;;;17.00;100.00;100902.97;5010335;28;20021;-61
2022/10/19 06:52:02;;;;;;;23.38;9.85;;;;;;;17.00;100.00;100905.66;5009555;28;20133;-61
2022/10/19 06:54:28;;;;;;;19.60;8.60;;;;;;;17.03;100.00;100894.75;4997615;28;20075;-61
2022/10/19 06:56:53;;;;;;;20.90;9.80;;;;;;;16.98;100.00;100903.00;5012193;28;20026;-61
2022/10/19 06:59:19;;;;;;;20.67;9.32;;;;;;;17.03;100.00;100905.50;5010774;28;20041;-61
2022/10/19 07:01:44;;;;;;;21.70;10.40;;;;;;;17.00;100.00;100885.00;4991824;28;20030;-59
2022/10/19 07:04:10;;;;;;;22.65;9.45;;;;;;;17.11;100.00;100897.97;5003837;28;20026;-59
2022/10/19 07:06:35;;;;;;;21.65;9.32;;;;;;;17.08;100.00;100898.97;5010452;28;20173;-59
2022/10/19 07:09:01;;;;;;;18.25;9.05;;;;;;;17.00;100.00;100894.91;5006798;28;20477;-59
2022/10/19 07:11:27;;;;;;;18.55;8.50;;;;;;;17.00;100.00;100889.53;5009176;28;20032;-61
2022/10/19 07:13:53;;;;;;;21.10;9.15;;;;;;;17.00;100.00;100884.16;5001787;28;20501;-61
2022/10/19 07:16:19;;;;;;;22.83;9.82;;;;;;;17.05;100.00;100888.34;5006394;28;20647;-61
2022/10/19 07:18:45;;;;;;;17.40;9.05;;;;;;;17.15;100.00;100893.34;4994587;28;20022;-61
2022/10/19 07:21:13;;;;;;;19.80;8.93;;;;;;;17.09;100.00;100872.97;4999785;28;20034;-61
2022/10/19 07:23:40;;;;;;;18.90;8.80;;;;;;;17.13;100.00;100896.09;4993458;28;20498;-61
2022/10/19 07:26:10;;;;;;;20.17;8.52;;;;;;;17.18;100.00;100890.50;4987396;28;20393;-61
2022/10/19 07:28:37;;;;;;;18.42;9.32;;;;;;;17.16;100.00;100885.19;4995860;28;20499;-61
2022/10/19 07:31:08;;;;;;;20.40;9.48;;;;;;;17.21;100.00;100882.28;4987223;28;20042;-61
2022/10/19 07:33:34;;;;;;;20.98;8.93;;;;;;;17.22;100.00;100879.53;4999138;28;20081;-61
2022/10/19 07:36:05;;;;;;;21.02;9.20;;;;;;;17.33;100.00;100882.59;4977019;28;20509;-61
2022/10/19 07:38:32;;;;;;;20.25;8.45;;;;;;;17.36;100.00;100882.47;4974410;28;20014;-61
2022/10/19 07:41:07;;;;;;;18.25;8.98;;;;;;;17.33;100.00;100870.97;4985679;28;20042;-61
2022/10/19 07:43:33;;;;;;;24.77;8.52;;;;;;;17.44;100.00;100887.47;4978155;28;20120;-61
2022/10/19 07:46:01;;;;;;;17.80;8.98;;;;;;;17.49;100.00;100891.75;4979640;28;20467;-61
2022/10/19 07:48:27;;;;;;;19.58;8.77;;;;;;;17.56;100.00;100893.19;4981177;28;20027;-61
2022/10/19 07:50:53;;;;;;;16.45;7.13;;;;;;;17.61;100.00;100887.59;4977113;28;20403;-61
2022/10/19 07:53:18;;;;;;;14.55;7.15;;;;;;;17.60;100.00;100886.72;4976114;28;20034;-61
2022/10/19 07:55:44;;;;;;;19.15;7.38;;;;;;;17.61;100.00;100883.06;4979039;28;20050;-61
2022/10/19 07:58:10;;;;;;;19.17;8.10;;;;;;;17.68;100.00;100883.66;4980355;28;20037;-61
2022/10/19 08:00:35;;;;;;;15.85;7.32;;;;;;;17.72;100.00;100896.91;4997299;28;20029;-61
2022/10/19 08:03:00;;;;;;;16.67;6.80;;;;;;;17.72;100.00;100885.25;4980088;28;20521;-61
2022/10/19 08:05:26;;;;;;;16.23;7.55;;;;;;;17.78;100.00;100890.34;4983170;28;20026;-61
2022/10/19 08:07:51;;;;;;;13.57;7.43;;;;;;;17.86;100.00;100886.34;4981022;28;20027;-61
2022/10/19 08:10:17;;;;;;;16.42;7.43;;;;;;;17.90;100.00;100879.00;4978063;28;20640;-61
2022/10/19 08:12:42;;;;;;;15.23;7.55;;;;;;;17.97;100.00;100881.28;4984115;28;20045;-61
2022/10/19 08:15:08;;;;;;;16.50;7.82;;;;;;;18.03;100.00;100881.00;4978287;28;20463;-61
2022/10/19 08:17:35;;;;;;;15.85;8.63;;;;;;;17.99;100.00;100879.41;4977124;28;20125;-61
2022/10/19 08:20:01;;;;;;;16.05;8.25;;;;;;;18.06;100.00;100880.84;4970538;28;20046;-61
2022/10/19 08:22:26;;;;;;;15.68;7.70;;;;;;;18.01;100.00;100874.81;4977260;28;20031;-61
2022/10/19 08:24:52;;;;;;;12.98;6.72;;;;;;;18.02;100.00;100884.63;4992949;28;20051;-61
2022/10/19 08:27:17;;;;;;;16.08;7.32;;;;;;;18.09;100.00;100880.69;4990007;28;20509;-61
2022/10/19 08:29:42;;;;;;;15.25;7.10;;;;;;;18.21;100.00;100882.78;5002422;28;20117;-61
2022/10/19 08:32:08;;;;;;;10.90;6.10;;;;;;;18.21;100.00;100885.47;4994248;28;20032;-61
2022/10/19 08:34:33;;;;;;;12.52;6.43;;;;;;;18.27;100.00;100879.78;4992092;28;20405;-61
2022/10/19 08:37:01;;;;;;;12.00;6.40;;;;;;;18.37;100.00;100886.44;4996783;28;20112;-61
2022/10/19 08:39:26;;;;;;;14.48;7.57;;;;;;;18.48;100.00;100880.56;4995931;28;20072;-61
2022/10/19 08:42:17;;;;;;;13.32;6.47;;;;;;;18.57;100.00;100881.88;4996149;28;20038;-61
2022/10/19 08:45:00;;;;;;;13.45;7.20;;;;;;;18.69;100.00;100881.25;4977331;28;20061;-61
2022/10/19 08:47:54;;;;;;;15.18;7.28;;;;;;;18.79;100.00;100877.13;4995703;28;20117;-61
2022/10/19 08:50:24;;;;;;;15.77;7.27;;;;;;;18.90;100.00;100869.34;4995381;28;20034;-61
2022/10/19 08:53:15;;;;;;;11.07;5.72;;;;;;;18.96;100.00;100867.19;4991270;28;20273;-62
2022/10/19 08:55:46;;;;;;;14.10;6.40;;;;;;;19.08;100.00;100873.75;5003076;28;20021;-62
2022/10/19 08:58:43;;;;;;;11.70;6.13;;;;;;;19.16;100.00;100866.16;5006051;28;20029;-62
2022/10/19 09:01:39;;;;;;;11.13;5.88;;;;;;;19.18;100.00;100869.59;4983290;28;20058;-61
2022/10/19 09:04:34;;;;;;;10.07;5.97;;;;;;;19.28;100.00;100865.47;4997242;28;20045;-61
2022/10/19 09:07:08;;;;;;;11.48;5.85;;;;;;;19.52;100.00;100859.59;4996894;28;20116;-61
2022/10/19 09:09:41;;;;;;;14.93;6.18;;;;;;;19.78;100.00;100855.47;4995971;28;20058;-62
2022/10/19 09:12:09;;;;;;;12.05;5.97;;;;;;;20.01;100.00;100862.22;4995867;28;20033;-61
2022/10/19 09:14:42;;;;;;;12.25;6.28;;;;;;;20.16;100.00;100862.25;5000793;28;20033;-61
2022/10/19 09:17:17;;;;;;;10.45;5.90;;;;;;;20.20;100.00;100855.69;4994046;28;20451;-60
2022/10/19 09:19:43;;;;;;;14.65;6.10;;;;;;;20.36;100.00;100848.41;4993760;28;20026;-61
2022/10/19 09:22:20;;;;;;;12.02;5.88;;;;;;;20.58;100.00;100840.78;4999311;28;20030;-61
2022/10/19 09:24:58;;;;;;;10.70;6.13;;;;;;;20.77;99.24;100832.41;4995413;28;20524;-61
2022/10/19 09:27:32;;;;;;;16.17;6.68;;;;;;;21.01;97.08;100832.75;4995559;28;20030;-61
2022/10/19 09:30:04;;;;;;;13.02;6.70;;;;;;;21.16;97.19;100838.09;4999494;28;20085;-61
2022/10/19 09:32:36;;;;;;;12.50;6.65;;;;;;;21.39;95.94;100836.63;5001324;28;20025;-62
2022/10/19 09:35:06;;;;;;;11.10;6.10;;;;;;;21.74;95.08;100829.81;4995590;28;20036;-61
2022/10/19 09:37:38;;;;;;;13.27;6.80;;;;;;;21.84;91.55;100821.00;5001383;28;20081;-61
2022/10/19 09:40:05;;;;;;;10.25;6.45;;;;;;;21.85;90.38;100824.56;4995830;28;20092;-61
2022/10/19 09:42:33;;;;;;;12.02;5.85;;;;;;;22.04;90.96;100820.53;5003914;28;20425;-61
2022/10/19 09:45:28;;;;;;;12.50;6.65;;;;;;;22.06;89.03;100831.25;4998389;28;20034;-61
2022/10/19 09:47:53;;;;;;;10.02;5.78;;;;;;;21.96;88.00;100822.00;4998048;28;20071;-62
2022/10/19 09:50:21;;;;;;;12.25;6.70;;;;;;;21.74;89.12;100816.25;4999069;28;20442;-61
2022/10/19 09:52:55;;;;;;;13.85;6.05;;;;;;;21.78;90.12;100818.69;4995986;28;20030;-61
2022/10/19 09:55:36;;;;;;;14.65;6.85;;;;;;;21.71;89.34;100827.28;5004434;28;20086;-61
2022/10/19 09:58:14;;;;;;;11.93;6.45;;;;;;;21.70;88.38;100820.13;4996104;28;20515;-61
2022/10/19 10:00:44;;;;;;;11.40;6.43;;;;;;;21.88;89.70;100813.53;4995510;28;20037;-61
2022/10/19 10:03:26;;;;;;;10.82;6.57;;;;;;;22.20;88.51;100814.97;4997838;28;20440;-61
2022/10/19 10:05:54;;;;;;;11.37;6.13;;;;;;;22.50;87.48;100812.88;4998338;28;20026;-61
2022/10/19 10:08:24;;;;;;;11.15;6.03;;;;;;;22.68;84.73;100814.34;4995567;28;20054;-61
2022/10/19 10:11:07;;;;;;;11.13;6.38;;;;;;;22.97;84.55;100807.72;4999175;28;20029;-62
2022/10/19 10:13:42;;;;;;;9.82;6.15;;;;;;;23.23;82.68;100806.72;4981485;28;20058;-61
2022/10/19 10:16:12;;;;;;;9.68;5.18;;;;;;;23.78;78.93;100800.00;4995374;28;20029;-59
2022/10/19 10:18:59;;;;;;;9.57;5.55;;;;;;;24.28;76.58;100810.69;4997418;28;20468;-61
2022/10/19 10:21:46;;;;;;;12.32;5.50;;;;;;;24.34;74.66;100807.47;4993516;28;20042;-62
2022/10/19 10:24:11;;;;;;;10.15;5.63;;;;;;;24.43;74.52;100804.06;4994383;28;20040;-62
2022/10/19 10:26:39;;;;;;;10.70;5.22;;;;;;;24.18;74.47;100810.53;4994582;28;20042;-61
2022/10/19 10:29:20;;;;;;;12.27;6.05;;;;;;;24.37;75.16;100801.78;4993751;28;20041;-62
2022/10/19 10:31:50;;;;;;;9.93;6.18;;;;;;;24.67;74.16;100799.44;4995635;28;20053;-62
2022/10/19 10:34:39;;;;;;;7.57;4.93;;;;;;;25.11;71.57;100802.25;4994251;28;20077;-62
2022/10/19 10:37:09;;;;;;;7.78;4.60;;;;;;;25.79;71.02;100800.25;4994259;28;20033;-62
2022/10/19 10:39:42;;;;;;;12.63;5.18;;;;;;;26.00;67.99;100791.28;4994445;28;20022;-62
2022/10/19 10:42:17;;;;;;;10.38;5.05;;;;;;;26.04;66.30;100792.78;4994926;28;20488;-61
2022/10/19 10:44:50;;;;;;;9.82;5.15;;;;;;;26.42;65.69;100793.13;4996882;28;20084;-62
2022/10/19 10:47:20;;;;;;;7.50;4.78;;;;;;;27.11;64.91;100774.22;4994801;28;20038;-62
2022/10/19 10:50:06;;;;;;;7.88;4.40;;;;;;;27.64;60.60;100787.66;4995344;28;20029;-62
2022/10/19 10:52:32;;;;;;;7.60;4.35;;;;;;;28.02;58.57;100802.31;4994702;28;20069;-61
2022/10/19 10:55:16;;;;;;;6.63;4.22;;;;;;;28.12;57.44;100797.72;4992916;28;20445;-61
2022/10/19 10:58:03;;;;;;;8.52;4.75;;;;;;;28.15;58.52;100785.63;4996534;28;20528;-62
2022/10/19 11:00:29;;;;;;;6.13;3.83;;;;;;;28.63;55.95;100781.03;4994362;28;20836;-62
2022/10/19 11:03:15;;;;;;;7.25;4.10;;;;;;;28.79;54.05;100780.41;4993875;28;20034;-62
2022/10/19 11:05:47;;;;;;;8.93;4.40;;;;;;;28.78;54.72;100784.19;4995830;28;20030;-61
2022/10/19 11:08:34;;;;;;;7.57;3.85;;;;;;;28.90;52.34;100777.50;4993296;28;20384;-62
2022/10/19 11:11:13;;;;;;;7.88;3.90;;;;;;;29.12;53.83;100777.19;4994753;28;20049;-62
2022/10/19 11:13:51;;;;;;;7.45;4.25;;;;;;;29.15;53.70;100765.94;4993031;28;20041;-61
2022/10/19 11:16:20;;;;;;;9.65;3.60;;;;;;;29.42;53.64;100769.53;4995270;28;20767;-61
2022/10/19 11:18:52;;;;;;;6.22;3.38;;;;;;;29.73;51.21;100766.53;4995945;28;20036;-62
2022/10/19 11:21:40;;;;;;;6.03;3.53;;;;;;;29.74;50.22;100763.63;4994258;28;20090;-62
2022/10/19 11:24:26;;;;;;;7.18;3.50;;;;;;;29.86;50.29;100756.91;5001212;28;20052;-61
2022/10/19 11:27:19;;;;;;;7.45;3.45;;;;;;;30.04;49.82;100757.81;4992640;28;20034;-61